createdAt,value
2019-05-23T00:01:48.749Z,99.90
2019-05-23T00:04:23.286Z,99.90
2019-05-23T00:06:51.518Z,99.90
2019-05-23T00:09:20.184Z,99.90
2019-05-23T00:12:06.095Z,99.90
2019-05-23T00:14:39.505Z,99.90
2019-05-23T00:17:11.584Z,99.90
2019-05-23T00:19:39.947Z,99.90
2019-05-23T00:22:08.689Z,99.90
2019-05-23T00:24:38.454Z,99.90
2019-05-23T00:27:06.815Z,99.90
2019-05-23T00:29:35.800Z,99.90
2019-05-23T00:32:21.777Z,99.90
2019-05-23T00:34:51.394Z,99.90
2019-05-23T00:37:20.362Z,99.90
2019-05-23T00:39:48.125Z,99.90
2019-05-23T00:42:16.095Z,99.90
2019-05-23T00:44:44.305Z,99.90
2019-05-23T00:47:13.253Z,99.90
2019-05-23T00:49:42.195Z,99.90
2019-05-23T00:52:10.356Z,99.90
2019-05-23T00:54:39.942Z,99.90
2019-05-23T00:57:09.120Z,99.90
2019-05-23T00:59:38.093Z,99.90
2019-05-23T01:02:07.355Z,99.90
2019-05-23T01:04:37.008Z,99.90
2019-05-23T01:07:06.558Z,99.90
2019-05-23T01:09:35.895Z,99.90
2019-05-23T01:12:03.688Z,99.90
2019-05-23T01:14:31.947Z,99.90
2019-05-23T01:17:00.629Z,99.90
2019-05-23T01:19:28.640Z,99.90
2019-05-23T01:22:01.377Z,99.90
2019-05-23T01:24:41.631Z,99.90
2019-05-23T01:27:10.521Z,99.90
2019-05-23T01:29:41.530Z,99.90
2019-05-23T01:32:15.531Z,99.90
2019-05-23T01:34:44.335Z,99.90
2019-05-23T01:37:13.379Z,99.90
2019-05-23T01:39:41.136Z,99.90
2019-05-23T01:42:08.905Z,99.90
2019-05-23T01:44:37.096Z,99.90
2019-05-23T01:47:05.679Z,99.90
2019-05-23T01:49:35.402Z,99.90
2019-05-23T01:52:04.982Z,99.90
2019-05-23T01:54:33.081Z,99.90
2019-05-23T01:57:00.803Z,99.90
2019-05-23T01:59:28.797Z,99.90
2019-05-23T02:01:56.883Z,99.90
2019-05-23T02:04:24.603Z,99.90
2019-05-23T02:06:52.230Z,99.90
2019-05-23T02:09:19.894Z,99.90
2019-05-23T02:11:48.555Z,99.90
2019-05-23T02:14:16.624Z,99.90
2019-05-23T02:16:46.203Z,99.90
2019-05-23T02:19:13.984Z,99.90
2019-05-23T02:21:42.809Z,99.90
2019-05-23T02:24:11.650Z,99.90
2019-05-23T02:26:40.386Z,99.90
2019-05-23T02:29:09.766Z,99.90
2019-05-23T02:31:38.275Z,99.90
2019-05-23T02:34:06.058Z,99.90
2019-05-23T02:36:34.572Z,99.90
2019-05-23T02:39:20.159Z,99.90
2019-05-23T02:42:06.752Z,99.90
2019-05-23T02:44:36.355Z,99.90
2019-05-23T02:47:21.245Z,99.90
2019-05-23T02:49:49.322Z,99.90
2019-05-23T02:52:31.063Z,99.90
2019-05-23T02:55:00.562Z,99.90
2019-05-23T02:57:29.787Z,99.90
2019-05-23T03:00:06.708Z,99.90
2019-05-23T03:03:04.218Z,99.90
2019-05-23T03:05:34.440Z,99.90
2019-05-23T03:08:04.459Z,99.90
2019-05-23T03:10:54.589Z,99.90
2019-05-23T03:13:25.938Z,99.90
2019-05-23T03:15:54.968Z,99.90
2019-05-23T03:18:23.534Z,99.90
2019-05-23T03:20:53.199Z,99.90
2019-05-23T03:23:20.961Z,99.90
2019-05-23T03:26:51.864Z,99.90
2019-05-23T03:29:21.256Z,99.90
2019-05-23T03:31:54.933Z,99.90
2019-05-23T03:34:24.361Z,99.90
2019-05-23T03:36:52.522Z,99.90
2019-05-23T03:39:20.552Z,99.90
2019-05-23T03:41:48.550Z,99.90
2019-05-23T03:44:16.894Z,99.90
2019-05-23T03:46:46.679Z,99.90
2019-05-23T03:49:15.970Z,99.90
2019-05-23T03:51:44.483Z,99.90
2019-05-23T03:54:13.911Z,99.90
2019-05-23T03:56:41.899Z,99.90
2019-05-23T03:59:11.662Z,99.90
2019-05-23T04:01:47.880Z,99.90
2019-05-23T04:04:09.591Z,99.90
2019-05-23T04:06:37.361Z,99.90
2019-05-23T04:09:07.323Z,99.90
2019-05-23T04:11:34.995Z,99.90
2019-05-23T04:14:03.065Z,99.90
2019-05-23T04:16:31.067Z,99.90
2019-05-23T04:18:58.778Z,99.90
2019-05-23T04:21:26.439Z,99.90
2019-05-23T04:23:54.234Z,99.90
2019-05-23T04:26:22.572Z,99.90
2019-05-23T04:28:51.102Z,99.90
2019-05-23T04:31:19.558Z,99.90
2019-05-23T04:33:47.589Z,99.90
2019-05-23T04:36:16.132Z,99.90
2019-05-23T04:38:43.894Z,99.90
2019-05-23T04:41:11.587Z,99.90
2019-05-23T04:43:39.237Z,99.90
2019-05-23T04:46:07.318Z,99.90
2019-05-23T04:48:35.729Z,99.90
2019-05-23T04:51:04.598Z,99.90
2019-05-23T04:53:32.558Z,99.90
2019-05-23T04:56:00.942Z,99.90
2019-05-23T04:58:28.855Z,99.90
2019-05-23T05:00:57.320Z,99.90
2019-05-23T05:03:25.441Z,99.90
2019-05-23T05:05:53.526Z,99.90
2019-05-23T05:08:21.287Z,99.90
2019-05-23T05:10:49.106Z,99.90
2019-05-23T05:13:16.958Z,99.90
2019-05-23T05:15:44.707Z,99.90
2019-05-23T05:18:12.566Z,99.90
2019-05-23T05:20:40.307Z,99.90
2019-05-23T05:23:08.025Z,99.90
2019-05-23T05:25:35.664Z,99.90
2019-05-23T05:28:03.433Z,99.90
2019-05-23T05:30:31.364Z,99.90
2019-05-23T05:32:59.433Z,99.90
2019-05-23T05:35:29.023Z,99.90
2019-05-23T05:37:57.114Z,99.90
2019-05-23T05:40:25.451Z,99.90
2019-05-23T05:42:53.383Z,99.90
2019-05-23T05:45:21.552Z,99.90
2019-05-23T05:47:49.515Z,99.90
2019-05-23T05:50:18.779Z,99.90
2019-05-23T05:52:46.516Z,99.90
2019-05-23T05:55:14.395Z,99.90
2019-05-23T05:57:42.028Z,99.90
2019-05-23T06:00:30.508Z,99.90
2019-05-23T06:03:04.149Z,99.90
2019-05-23T06:05:44.013Z,99.90
2019-05-23T06:08:13.182Z,99.90
2019-05-23T06:10:40.978Z,99.90
2019-05-23T06:13:08.858Z,99.90
2019-05-23T06:15:36.784Z,99.90
2019-05-23T06:18:06.009Z,99.90
2019-05-23T06:20:34.367Z,99.90
2019-05-23T06:23:02.874Z,99.90
2019-05-23T06:25:30.683Z,99.90
2019-05-23T06:27:59.443Z,99.90
2019-05-23T06:30:28.339Z,99.90
2019-05-23T06:32:56.411Z,99.90
2019-05-23T06:35:25.256Z,99.90
2019-05-23T06:37:52.964Z,99.90
2019-05-23T06:40:21.252Z,99.90
2019-05-23T06:42:50.741Z,99.90
2019-05-23T06:45:19.341Z,99.90
2019-05-23T06:47:47.109Z,99.90
2019-05-23T06:50:17.110Z,99.90
2019-05-23T06:52:44.891Z,99.90
2019-05-23T06:55:12.554Z,99.90
2019-05-23T06:57:40.197Z,99.90
2019-05-23T07:00:08.310Z,99.90
2019-05-23T07:02:36.499Z,99.90
2019-05-23T07:05:04.850Z,99.90
2019-05-23T07:07:33.498Z,99.90
2019-05-23T07:10:03.841Z,99.90
2019-05-23T07:12:31.737Z,99.90
2019-05-23T07:14:59.393Z,99.90
2019-05-23T07:17:28.344Z,99.90
2019-05-23T07:19:56.031Z,99.90
2019-05-23T07:22:26.066Z,99.90
2019-05-23T07:24:58.415Z,99.90
2019-05-23T07:27:23.911Z,99.90
2019-05-23T07:29:51.628Z,99.90
2019-05-23T07:32:19.285Z,99.90
2019-05-23T07:34:47.019Z,99.90
2019-05-23T07:37:14.782Z,99.90
2019-05-23T07:39:42.882Z,99.90
2019-05-23T07:42:11.073Z,99.90
2019-05-23T07:44:48.307Z,99.90
2019-05-23T07:47:11.673Z,99.90
2019-05-23T07:49:39.687Z,99.90
2019-05-23T07:52:07.507Z,99.90
2019-05-23T07:54:58.230Z,99.90
2019-05-23T07:57:26.784Z,99.90
2019-05-23T07:59:55.357Z,99.90
2019-05-23T08:02:33.542Z,99.90
2019-05-23T08:05:01.839Z,99.90
2019-05-23T08:07:32.612Z,99.90
2019-05-23T08:09:59.485Z,99.90
2019-05-23T08:12:27.340Z,99.90
2019-05-23T08:14:54.970Z,99.90
2019-05-23T08:17:22.977Z,99.90
2019-05-23T08:19:50.754Z,98.10
2019-05-23T08:22:18.430Z,97.80
2019-05-23T08:24:50.713Z,98.50
2019-05-23T08:27:20.739Z,97.80
2019-05-23T08:29:48.611Z,96.10
2019-05-23T08:32:16.259Z,95.30
2019-05-23T08:34:43.985Z,94.40
2019-05-23T08:37:11.670Z,94.00
2019-05-23T08:39:39.851Z,93.00
2019-05-23T08:42:08.046Z,92.40
2019-05-23T08:44:35.826Z,91.40
2019-05-23T08:47:06.585Z,91.50
2019-05-23T08:49:34.233Z,91.40
2019-05-23T08:52:02.221Z,90.40
2019-05-23T08:54:30.500Z,89.30
2019-05-23T08:56:58.121Z,88.80
2019-05-23T08:59:26.230Z,88.60
2019-05-23T09:01:54.401Z,85.70
2019-05-23T09:04:22.965Z,84.70
2019-05-23T09:06:50.620Z,85.40
2019-05-23T09:09:29.261Z,83.70
2019-05-23T09:11:47.963Z,82.00
2019-05-23T09:14:15.613Z,81.40
2019-05-23T09:16:43.321Z,81.20
2019-05-23T09:19:11.064Z,82.10
2019-05-23T09:21:38.758Z,81.80
2019-05-23T09:24:07.953Z,81.80
2019-05-23T09:26:35.973Z,82.20
2019-05-23T09:29:03.772Z,81.30
2019-05-23T09:31:32.038Z,81.80
2019-05-23T09:33:59.807Z,81.70
2019-05-23T09:36:27.456Z,81.30
2019-05-23T09:38:55.161Z,80.60
2019-05-23T09:41:22.784Z,78.90
2019-05-23T09:43:50.450Z,77.30
2019-05-23T09:46:18.556Z,76.90
2019-05-23T09:48:46.549Z,75.90
2019-05-23T09:51:14.376Z,75.60
2019-05-23T09:53:46.998Z,76.70
2019-05-23T09:56:11.875Z,76.00
2019-05-23T09:58:39.501Z,74.50
2019-05-23T10:01:07.144Z,74.70
2019-05-23T10:03:34.952Z,76.00
2019-05-23T10:06:02.608Z,75.20
2019-05-23T10:08:30.371Z,76.20
2019-05-23T10:10:58.066Z,76.40
2019-05-23T10:13:38.498Z,75.90
2019-05-23T10:16:03.081Z,74.90
2019-05-23T10:18:31.032Z,74.90
2019-05-23T10:20:58.792Z,75.70
2019-05-23T10:23:26.509Z,75.70
2019-05-23T10:25:54.171Z,76.80
2019-05-23T10:28:21.831Z,77.00
2019-05-23T10:30:49.727Z,76.00
2019-05-23T10:33:17.384Z,76.70
2019-05-23T10:35:58.954Z,75.30
2019-05-23T10:38:14.607Z,75.40
2019-05-23T10:40:42.672Z,76.60
2019-05-23T10:43:10.666Z,76.90
2019-05-23T10:45:38.432Z,77.20
2019-05-23T10:48:07.495Z,77.40
2019-05-23T10:50:44.185Z,76.20
2019-05-23T10:53:05.293Z,76.40
2019-05-23T10:55:32.950Z,77.80
2019-05-23T10:58:00.904Z,77.40
2019-05-23T11:00:29.855Z,77.50
2019-05-23T11:02:58.774Z,77.20
2019-05-23T11:05:26.973Z,77.50
2019-05-23T11:07:54.764Z,78.20
2019-05-23T11:10:22.657Z,77.20
2019-05-23T11:12:50.869Z,78.40
2019-05-23T11:15:18.800Z,77.30
2019-05-23T11:17:46.665Z,77.90
2019-05-23T11:20:16.425Z,78.40
2019-05-23T11:22:44.155Z,77.40
2019-05-23T11:25:12.908Z,77.30
2019-05-23T11:27:40.599Z,77.60
2019-05-23T11:30:12.160Z,75.90
2019-05-23T11:32:39.855Z,75.40
2019-05-23T11:35:07.796Z,76.10
2019-05-23T11:37:35.494Z,74.80
2019-05-23T11:40:03.438Z,75.50
2019-05-23T11:42:31.182Z,76.10
2019-05-23T11:44:58.914Z,77.50
2019-05-23T11:47:30.675Z,76.30
2019-05-23T11:49:56.422Z,75.40
2019-05-23T11:52:24.069Z,75.80
2019-05-23T11:54:52.794Z,75.90
2019-05-23T11:57:20.449Z,76.40
2019-05-23T11:59:48.859Z,77.20
2019-05-23T12:02:25.391Z,75.60
2019-05-23T12:04:54.746Z,74.90
2019-05-23T12:07:28.804Z,75.30
2019-05-23T12:09:56.475Z,75.00
2019-05-23T12:12:24.119Z,74.70
2019-05-23T12:14:52.020Z,74.80
2019-05-23T12:17:20.968Z,74.30
2019-05-23T12:19:48.703Z,75.60
2019-05-23T12:22:17.594Z,74.50
2019-05-23T12:24:45.501Z,72.90
2019-05-23T12:27:13.977Z,73.80
2019-05-23T12:29:41.736Z,73.60
2019-05-23T12:32:11.373Z,73.20
2019-05-23T12:34:39.072Z,72.40
2019-05-23T12:37:22.056Z,72.10
2019-05-23T12:39:36.410Z,72.50
2019-05-23T12:42:07.249Z,71.50
2019-05-23T12:44:34.990Z,72.70
2019-05-23T12:47:04.543Z,71.70
2019-05-23T12:49:54.722Z,71.30
2019-05-23T12:52:22.989Z,72.90
2019-05-23T12:54:50.835Z,73.30
2019-05-23T12:57:18.666Z,72.70
2019-05-23T12:59:46.469Z,73.20
2019-05-23T13:02:21.892Z,73.50
2019-05-23T13:04:49.694Z,73.50
2019-05-23T13:07:34.591Z,74.30
2019-05-23T13:09:47.038Z,73.50
2019-05-23T13:12:16.554Z,73.80
2019-05-23T13:14:44.756Z,74.40
2019-05-23T13:17:12.438Z,73.50
2019-05-23T13:19:40.238Z,73.20
2019-05-23T13:22:08.861Z,72.40
2019-05-23T13:24:52.153Z,73.80
2019-05-23T13:27:06.530Z,74.20
2019-05-23T13:29:34.264Z,75.00
2019-05-23T13:32:01.933Z,75.20
2019-05-23T13:34:29.608Z,74.80
2019-05-23T13:36:57.364Z,75.10
2019-05-23T13:39:25.747Z,75.70
2019-05-23T13:41:53.414Z,74.50
2019-05-23T13:44:32.707Z,73.40
2019-05-23T13:46:50.909Z,73.50
2019-05-23T13:49:18.556Z,72.20
2019-05-23T13:51:46.724Z,73.20
2019-05-23T13:54:14.435Z,73.00
2019-05-23T13:56:46.729Z,72.80
2019-05-23T13:59:12.115Z,72.90
2019-05-23T14:01:39.773Z,73.00
2019-05-23T14:04:07.517Z,72.80
2019-05-23T14:06:35.291Z,72.40
2019-05-23T14:09:04.121Z,73.50
2019-05-23T14:11:31.841Z,72.90
2019-05-23T14:14:01.815Z,73.10
2019-05-23T14:16:30.826Z,72.90
2019-05-23T14:18:58.725Z,74.10
2019-05-23T14:21:29.483Z,72.90
2019-05-23T14:23:57.308Z,73.50
2019-05-23T14:26:26.386Z,73.20
2019-05-23T14:28:54.517Z,73.90
2019-05-23T14:31:22.881Z,73.30
2019-05-23T14:34:02.287Z,73.40
2019-05-23T14:36:46.857Z,73.20
2019-05-23T14:39:45.881Z,74.40
2019-05-23T14:42:45.136Z,74.10
2019-05-23T14:45:30.946Z,73.40
2019-05-23T14:48:11.867Z,73.80
2019-05-23T14:51:11.664Z,73.30
2019-05-23T14:53:41.112Z,73.30
2019-05-23T14:56:09.606Z,74.30
2019-05-23T14:58:37.372Z,73.80
2019-05-23T15:01:07.038Z,74.10
2019-05-23T15:03:35.875Z,74.30
2019-05-23T15:06:04.129Z,74.60
2019-05-23T15:08:49.597Z,73.50
2019-05-23T15:11:01.760Z,73.50
2019-05-23T15:13:29.431Z,73.40
2019-05-23T15:15:57.054Z,73.20
2019-05-23T15:18:24.887Z,73.10
2019-05-23T15:20:52.542Z,73.00
2019-05-23T15:23:20.236Z,73.10
2019-05-23T15:25:47.894Z,73.50
2019-05-23T15:28:15.632Z,74.20
2019-05-23T15:30:43.306Z,73.80
2019-05-23T15:33:10.979Z,73.40
2019-05-23T15:35:38.673Z,73.70
2019-05-23T15:38:06.453Z,74.00
2019-05-23T15:40:34.390Z,74.50
2019-05-23T15:43:02.470Z,75.10
2019-05-23T15:45:30.957Z,75.30
2019-05-23T15:47:58.693Z,74.80
2019-05-23T15:50:30.837Z,74.90
2019-05-23T15:53:32.895Z,74.50
2019-05-23T15:56:28.044Z,75.60
2019-05-23T15:59:28.782Z,74.60
2019-05-23T16:02:18.566Z,75.00
2019-05-23T16:04:48.055Z,75.50
2019-05-23T16:07:16.284Z,75.60
2019-05-23T16:09:44.266Z,75.40
2019-05-23T16:12:12.533Z,75.40
2019-05-23T16:14:40.614Z,75.30
2019-05-23T16:17:09.143Z,75.80
2019-05-23T16:19:36.881Z,75.80
2019-05-23T16:22:04.768Z,76.20
2019-05-23T16:24:32.409Z,76.70
2019-05-23T16:27:00.853Z,76.40
2019-05-23T16:29:29.634Z,76.10
2019-05-23T16:31:57.322Z,75.90
2019-05-23T16:34:25.099Z,76.10
2019-05-23T16:36:52.872Z,76.30
2019-05-23T16:39:20.650Z,77.50
2019-05-23T16:41:48.504Z,77.80
2019-05-23T16:44:16.178Z,77.50
2019-05-23T16:46:44.016Z,77.80
2019-05-23T16:49:11.749Z,78.00
2019-05-23T16:51:39.426Z,78.00
2019-05-23T16:54:07.324Z,77.80
2019-05-23T16:56:42.530Z,78.40
2019-05-23T16:59:35.745Z,78.40
2019-05-23T17:02:24.626Z,78.10
2019-05-23T17:05:10.022Z,78.40
2019-05-23T17:07:58.702Z,77.80
2019-05-23T17:11:01.049Z,78.40
2019-05-23T17:13:36.009Z,78.70
2019-05-23T17:16:21.024Z,79.30
2019-05-23T17:19:03.414Z,78.70
2019-05-23T17:21:49.363Z,79.90
2019-05-23T17:24:26.062Z,80.20
2019-05-23T17:27:08.561Z,80.20
2019-05-23T17:29:48.198Z,80.20
2019-05-23T17:32:18.835Z,79.80
2019-05-23T17:34:46.772Z,80.50
2019-05-23T17:37:16.075Z,80.70
2019-05-23T17:39:45.590Z,80.30
2019-05-23T17:42:13.636Z,81.20
2019-05-23T17:44:41.523Z,81.30
2019-05-23T17:47:09.176Z,81.20
2019-05-23T17:49:37.019Z,81.70
2019-05-23T17:52:07.374Z,81.80
2019-05-23T17:54:35.060Z,82.70
2019-05-23T17:57:02.846Z,83.10
2019-05-23T17:59:30.474Z,83.20
2019-05-23T18:01:58.511Z,83.10
2019-05-23T18:04:26.197Z,82.70
2019-05-23T18:06:54.148Z,82.80
2019-05-23T18:09:22.518Z,82.80
2019-05-23T18:11:50.578Z,83.10
2019-05-23T18:14:18.869Z,83.80
2019-05-23T18:16:46.695Z,84.60
2019-05-23T18:19:15.051Z,84.80
2019-05-23T18:21:42.820Z,85.20
2019-05-23T18:24:11.274Z,85.50
2019-05-23T18:26:39.023Z,85.90
2019-05-23T18:29:06.775Z,86.80
2019-05-23T18:31:36.387Z,89.00
2019-05-23T18:34:04.736Z,88.30
2019-05-23T18:36:32.427Z,89.20
2019-05-23T18:39:00.184Z,90.10
2019-05-23T18:41:30.300Z,90.00
2019-05-23T18:43:59.081Z,90.50
2019-05-23T18:46:37.030Z,90.90
2019-05-23T18:49:02.988Z,91.10
2019-05-23T18:51:30.903Z,91.40
2019-05-23T18:53:58.525Z,91.90
2019-05-23T18:56:26.198Z,92.40
2019-05-23T18:58:54.072Z,92.80
2019-05-23T19:01:26.285Z,93.00
2019-05-23T19:03:54.575Z,93.90
2019-05-23T19:06:22.368Z,94.50
2019-05-23T19:08:50.559Z,95.00
2019-05-23T19:11:21.263Z,95.50
2019-05-23T19:13:47.901Z,96.10
2019-05-23T19:16:15.711Z,96.80
2019-05-23T19:18:43.578Z,97.70
2019-05-23T19:21:12.508Z,99.60
2019-05-23T19:23:40.658Z,99.90
2019-05-23T19:26:08.663Z,99.90
2019-05-23T19:28:36.829Z,99.90
2019-05-23T19:31:04.934Z,99.90
2019-05-23T19:33:33.947Z,99.90
2019-05-23T19:36:01.680Z,99.90
2019-05-23T19:38:29.641Z,99.90
2019-05-23T19:40:57.430Z,99.90
2019-05-23T19:43:25.150Z,99.90
2019-05-23T19:45:53.042Z,99.90
2019-05-23T19:48:22.103Z,99.90
2019-05-23T19:50:51.335Z,99.90
2019-05-23T19:53:19.046Z,99.90
2019-05-23T19:55:48.186Z,99.90
2019-05-23T19:58:16.381Z,99.90
2019-05-23T20:00:45.077Z,99.90
2019-05-23T20:03:13.033Z,99.90
2019-05-23T20:05:40.828Z,99.90
2019-05-23T20:08:08.870Z,99.90
2019-05-23T20:10:36.991Z,99.90
2019-05-23T20:13:05.115Z,99.90
2019-05-23T20:15:33.167Z,99.90
2019-05-23T20:18:00.849Z,99.90
2019-05-23T20:20:29.406Z,99.90
2019-05-23T20:22:57.198Z,99.90
2019-05-23T20:25:24.853Z,99.90
2019-05-23T20:27:52.558Z,99.90
2019-05-23T20:30:49.526Z,99.90
2019-05-23T20:33:17.337Z,99.90
2019-05-23T20:35:45.044Z,99.90
2019-05-23T20:38:12.903Z,99.90
2019-05-23T20:40:40.572Z,99.90
2019-05-23T20:43:08.339Z,99.90
2019-05-23T20:45:37.269Z,99.90
2019-05-23T20:48:05.389Z,99.90
2019-05-23T20:50:33.767Z,99.90
2019-05-23T20:53:01.487Z,99.90
2019-05-23T20:55:29.134Z,99.90
2019-05-23T20:57:56.846Z,99.90
2019-05-23T21:00:36.580Z,99.90
2019-05-23T21:03:04.676Z,99.90
2019-05-23T21:05:32.316Z,99.90
2019-05-23T21:08:00.048Z,99.90
2019-05-23T21:10:46.882Z,99.90
2019-05-23T21:13:14.776Z,99.90
2019-05-23T21:15:42.419Z,99.90
2019-05-23T21:18:10.191Z,99.90
2019-05-23T21:20:38.379Z,99.90
2019-05-23T21:23:06.051Z,99.90
2019-05-23T21:25:34.371Z,99.90
2019-05-23T21:28:02.226Z,99.90
2019-05-23T21:30:30.096Z,99.90
2019-05-23T21:32:57.657Z,99.90
2019-05-23T21:35:25.378Z,99.90
2019-05-23T21:37:53.011Z,99.90
2019-05-23T21:40:39.490Z,99.90
2019-05-23T21:43:07.188Z,99.90
2019-05-23T21:45:34.994Z,99.90
2019-05-23T21:48:02.995Z,99.90
2019-05-23T21:50:30.947Z,99.90
2019-05-23T21:52:58.867Z,99.90
2019-05-23T21:55:37.202Z,99.90
2019-05-23T21:58:05.296Z,99.90
2019-05-23T22:01:39.174Z,99.90
2019-05-23T22:04:27.044Z,99.90
2019-05-23T22:06:59.704Z,99.90
2019-05-23T22:09:27.420Z,99.90
2019-05-23T22:11:55.970Z,99.90
2019-05-23T22:14:23.802Z,99.90
2019-05-23T22:16:52.254Z,99.90
2019-05-23T22:19:21.407Z,99.90
2019-05-23T22:21:49.080Z,99.90
2019-05-23T22:24:18.034Z,99.90
2019-05-23T22:26:45.676Z,99.90
2019-05-23T22:29:14.238Z,99.90
2019-05-23T22:31:42.220Z,99.90
2019-05-23T22:34:23.625Z,99.90
2019-05-23T22:36:51.288Z,99.90
2019-05-23T22:39:19.289Z,99.90
2019-05-23T22:41:46.930Z,99.90
2019-05-23T22:44:14.628Z,99.90
2019-05-23T22:46:42.567Z,99.90
2019-05-23T22:49:10.442Z,99.90
2019-05-23T22:51:38.176Z,99.90
2019-05-23T22:54:05.950Z,99.90
2019-05-23T22:56:33.746Z,99.90
2019-05-23T22:59:01.403Z,99.90
2019-05-23T23:01:30.023Z,99.90
2019-05-23T23:03:57.654Z,99.90
2019-05-23T23:06:25.429Z,99.90
2019-05-23T23:08:53.111Z,99.90
2019-05-23T23:11:21.047Z,99.90
2019-05-23T23:13:48.733Z,99.90
2019-05-23T23:16:16.507Z,99.90
2019-05-23T23:18:44.177Z,99.90
2019-05-23T23:21:11.958Z,99.90
2019-05-23T23:23:39.695Z,99.90
2019-05-23T23:26:07.421Z,99.90
2019-05-23T23:28:35.780Z,99.90
2019-05-23T23:31:03.829Z,99.90
2019-05-23T23:33:31.349Z,99.90
2019-05-23T23:35:59.005Z,99.90
2019-05-23T23:38:26.610Z,99.90
2019-05-23T23:40:54.782Z,99.90
2019-05-23T23:43:22.392Z,99.90
2019-05-23T23:46:08.097Z,99.90
2019-05-23T23:48:53.957Z,99.90
2019-05-23T23:51:39.979Z,99.90
2019-05-23T23:54:26.091Z,99.90
2019-05-23T23:57:12.002Z,99.90
2019-05-23T23:59:39.123Z,99.90
